Monford, Kentucky
Current Conditions -  °F | °C
As of 2:53 AM on Monday 24 Nov 2014 (Local Time) from KBWG Reporting Station
Overcast Overcast  
Wind Chill: 62°   Ceiling: 3600
Heat Index: 62°   Visibility: 10mi
Dew Point: 55°   Wind: 16mph
Humidity: 78%   Direction: 190°S
Pressure: 29.42"   Gusts: 25mph
Location:  37.2015°N, 86.4449°W
Report Text: KBWG 240853Z AUTO 19014G22KT 10SM BKN036 BKN045 OVC055 17/13 A2942 RMK AO2 SLP958 T01670128 56011
Loading
Personal Weather Stations






























Interactive Weather Map New forecast layout! Learn more

10-Day Weather Forecast

Advertisements
Track Severe Weather on mobile